sensor_id;sensor_type;location;lat;lon;timestamp;pressure;altitude;pressure_sealevel;temperature;humidity
43420;BME280;29017;51.514;-0.178;2023-02-15T00:02:00;102251.34;;;9.72;76.64
43420;BME280;29017;51.514;-0.178;2023-02-15T00:04:28;102251.34;;;9.72;76.49
43420;BME280;29017;51.514;-0.178;2023-02-15T00:07:14;102247.75;;;9.73;76.64
43420;BME280;29017;51.514;-0.178;2023-02-15T00:09:42;102242.50;;;9.73;76.45
43420;BME280;29017;51.514;-0.178;2023-02-15T00:12:09;102245.97;;;9.74;76.70
43420;BME280;29017;51.514;-0.178;2023-02-15T00:14:36;102237.16;;;9.75;76.73
43420;BME280;29017;51.514;-0.178;2023-02-15T00:17:03;102232.59;;;9.77;77.67
43420;BME280;29017;51.514;-0.178;2023-02-15T00:19:30;102230.81;;;9.77;77.07
43420;BME280;29017;51.514;-0.178;2023-02-15T00:21:58;102222.06;;;9.77;76.70
43420;BME280;29017;51.514;-0.178;2023-02-15T00:24:25;102222.91;;;9.77;76.16
43420;BME280;29017;51.514;-0.178;2023-02-15T00:26:52;102213.34;;;9.76;76.84
43420;BME280;29017;51.514;-0.178;2023-02-15T00:29:19;102204.63;;;9.76;76.51
43420;BME280;29017;51.514;-0.178;2023-02-15T00:31:47;102193.41;;;9.74;76.59
43420;BME280;29017;51.514;-0.178;2023-02-15T00:34:16;102189.84;;;9.75;77.40
43420;BME280;29017;51.514;-0.178;2023-02-15T00:36:44;102173.09;;;9.76;76.65
43420;BME280;29017;51.514;-0.178;2023-02-15T00:39:11;102181.81;;;9.76;76.18
43420;BME280;29017;51.514;-0.178;2023-02-15T00:41:39;102178.13;;;9.79;76.25
43420;BME280;29017;51.514;-0.178;2023-02-15T00:44:06;102176.69;;;9.75;75.88
43420;BME280;29017;51.514;-0.178;2023-02-15T00:46:33;102173.22;;;9.74;76.03
43420;BME280;29017;51.514;-0.178;2023-02-15T00:49:00;102181.09;;;9.74;75.69
43420;BME280;29017;51.514;-0.178;2023-02-15T00:51:27;102172.25;;;9.75;75.80
43420;BME280;29017;51.514;-0.178;2023-02-15T00:53:55;102172.13;;;9.77;76.10
43420;BME280;29017;51.514;-0.178;2023-02-15T00:56:22;102172.13;;;9.77;76.53
43420;BME280;29017;51.514;-0.178;2023-02-15T00:58:49;102161.63;;;9.77;75.80
43420;BME280;29017;51.514;-0.178;2023-02-15T01:01:16;102167.72;;;9.77;75.72
43420;BME280;29017;51.514;-0.178;2023-02-15T01:03:44;102171.09;;;9.79;75.81
43420;BME280;29017;51.514;-0.178;2023-02-15T01:06:13;102172.03;;;9.78;75.04
43420;BME280;29017;51.514;-0.178;2023-02-15T01:08:41;102169.16;;;9.81;75.41
43420;BME280;29017;51.514;-0.178;2023-02-15T01:11:09;102164.66;;;9.83;75.59
43420;BME280;29017;51.514;-0.178;2023-02-15T01:13:37;102172.28;;;9.86;76.37
43420;BME280;29017;51.514;-0.178;2023-02-15T01:16:04;102172.28;;;9.86;75.97
43420;BME280;29017;51.514;-0.178;2023-02-15T01:18:32;102159.38;;;9.83;74.72
43420;BME280;29017;51.514;-0.178;2023-02-15T01:20:59;102156.16;;;9.80;74.28
43420;BME280;29017;51.514;-0.178;2023-02-15T01:23:27;102154.34;;;9.80;74.89
43420;BME280;29017;51.514;-0.178;2023-02-15T01:25:54;102150.06;;;9.79;75.21
43420;BME280;29017;51.514;-0.178;2023-02-15T01:28:21;102148.38;;;9.78;75.50
43420;BME280;29017;51.514;-0.178;2023-02-15T01:30:48;102148.28;;;9.80;75.71
43420;BME280;29017;51.514;-0.178;2023-02-15T01:33:15;102141.09;;;9.82;77.09
43420;BME280;29017;51.514;-0.178;2023-02-15T01:35:45;102135.94;;;9.80;76.51
43420;BME280;29017;51.514;-0.178;2023-02-15T01:38:13;102129.16;;;9.78;75.85
43420;BME280;29017;51.514;-0.178;2023-02-15T01:40:40;102124.13;;;9.75;75.54
43420;BME280;29017;51.514;-0.178;2023-02-15T01:43:09;102114.66;;;9.72;75.71
43420;BME280;29017;51.514;-0.178;2023-02-15T01:45:38;102118.03;;;9.74;77.63
43420;BME280;29017;51.514;-0.178;2023-02-15T01:48:08;102102.25;;;9.74;78.15
43420;BME280;29017;51.514;-0.178;2023-02-15T01:50:38;102103.22;;;9.73;78.16
43420;BME280;29017;51.514;-0.178;2023-02-15T01:55:39;102099.25;;;9.68;79.00
43420;BME280;29017;51.514;-0.178;2023-02-15T01:58:07;102099.50;;;9.65;79.22
43420;BME280;29017;51.514;-0.178;2023-02-15T02:00:34;102093.59;;;9.61;78.81
43420;BME280;29017;51.514;-0.178;2023-02-15T02:03:01;102100.78;;;9.59;78.78
43420;BME280;29017;51.514;-0.178;2023-02-15T02:05:30;102090.28;;;9.59;79.93
43420;BME280;29017;51.514;-0.178;2023-02-15T02:07:58;102085.03;;;9.59;79.82
43420;BME280;29017;51.514;-0.178;2023-02-15T02:10:25;102080.81;;;9.57;79.81
43420;BME280;29017;51.514;-0.178;2023-02-15T02:12:54;102084.63;;;9.53;80.03
43420;BME280;29017;51.514;-0.178;2023-02-15T02:15:23;102076.75;;;9.53;80.95
43420;BME280;29017;51.514;-0.178;2023-02-15T02:17:56;102077.09;;;9.48;80.92
43420;BME280;29017;51.514;-0.178;2023-02-15T02:27:57;102064.91;;;9.47;79.54
43420;BME280;29017;51.514;-0.178;2023-02-15T02:35:33;102056.94;;;9.49;79.02
43420;BME280;29017;51.514;-0.178;2023-02-15T02:43:06;102059.66;;;9.47;78.33
43420;BME280;29017;51.514;-0.178;2023-02-15T02:48:08;102059.16;;;9.42;77.57
43420;BME280;29017;51.514;-0.178;2023-02-15T02:50:38;102056.03;;;9.37;77.69
43420;BME280;29017;51.514;-0.178;2023-02-15T02:53:06;102064.16;;;9.34;77.85
43420;BME280;29017;51.514;-0.178;2023-02-15T02:55:35;102058.19;;;9.32;77.72
43420;BME280;29017;51.514;-0.178;2023-02-15T02:58:05;102056.63;;;9.29;77.97
43420;BME280;29017;51.514;-0.178;2023-02-15T03:00:36;102062.94;;;9.27;78.13
43420;BME280;29017;51.514;-0.178;2023-02-15T03:03:05;102052.53;;;9.25;78.29
43420;BME280;29017;51.514;-0.178;2023-02-15T03:05:33;102050.16;;;9.22;78.70
43420;BME280;29017;51.514;-0.178;2023-02-15T03:08:01;102049.31;;;9.22;78.93
43420;BME280;29017;51.514;-0.178;2023-02-15T03:10:32;102048.47;;;9.21;79.69
43420;BME280;29017;51.514;-0.178;2023-02-15T03:13:01;102045.25;;;9.18;78.91
43420;BME280;29017;51.514;-0.178;2023-02-15T03:15:29;102041.03;;;9.15;78.83
43420;BME280;29017;51.514;-0.178;2023-02-15T03:18:18;102044.75;;;9.13;78.72
43420;BME280;29017;51.514;-0.178;2023-02-15T03:20:47;102036.03;;;9.12;79.20
43420;BME280;29017;51.514;-0.178;2023-02-15T03:23:16;102031.81;;;9.10;79.54
43420;BME280;29017;51.514;-0.178;2023-02-15T03:25:46;102033.75;;;9.08;79.82
43420;BME280;29017;51.514;-0.178;2023-02-15T03:28:19;102025.97;;;9.06;79.69
43420;BME280;29017;51.514;-0.178;2023-02-15T03:30:48;102026.06;;;9.05;80.07
43420;BME280;29017;51.514;-0.178;2023-02-15T03:33:19;102007.84;;;9.03;80.16
43420;BME280;29017;51.514;-0.178;2023-02-15T03:35:49;102016.66;;;9.02;79.98
43420;BME280;29017;51.514;-0.178;2023-02-15T03:38:20;102014.25;;;8.99;80.24
43420;BME280;29017;51.514;-0.178;2023-02-15T03:40:51;102010.06;;;8.96;80.30
43420;BME280;29017;51.514;-0.178;2023-02-15T03:43:27;102003.13;;;8.95;80.88
43420;BME280;29017;51.514;-0.178;2023-02-15T03:45:58;102008.50;;;8.94;81.33
43420;BME280;29017;51.514;-0.178;2023-02-15T03:48:29;101998.22;;;8.91;81.91
43420;BME280;29017;51.514;-0.178;2023-02-15T03:51:00;102004.41;;;8.90;82.41
43420;BME280;29017;51.514;-0.178;2023-02-15T03:53:31;101995.72;;;8.89;82.29
43420;BME280;29017;51.514;-0.178;2023-02-15T03:55:58;101998.56;;;8.86;81.47
43420;BME280;29017;51.514;-0.178;2023-02-15T03:58:26;101994.38;;;8.84;81.96
43420;BME280;29017;51.514;-0.178;2023-02-15T04:05:57;101970.38;;;8.77;83.13
43420;BME280;29017;51.514;-0.178;2023-02-15T04:08:24;101973.97;;;8.76;83.38
43420;BME280;29017;51.514;-0.178;2023-02-15T04:11:11;101966.31;;;8.73;83.05
43420;BME280;29017;51.514;-0.178;2023-02-15T04:13:38;101973.34;;;8.73;83.89
43420;BME280;29017;51.514;-0.178;2023-02-15T04:16:05;101976.91;;;8.72;83.82
43420;BME280;29017;51.514;-0.178;2023-02-15T04:21:04;101971.19;;;8.67;83.46
43420;BME280;29017;51.514;-0.178;2023-02-15T04:23:34;101961.53;;;8.67;84.08
43420;BME280;29017;51.514;-0.178;2023-02-15T04:26:04;101962.56;;;8.65;84.67
43420;BME280;29017;51.514;-0.178;2023-02-15T04:28:31;101973.91;;;8.65;84.85
43420;BME280;29017;51.514;-0.178;2023-02-15T04:30:58;101966.13;;;8.64;85.20
43420;BME280;29017;51.514;-0.178;2023-02-15T04:33:25;101965.31;;;8.63;85.92
43420;BME280;29017;51.514;-0.178;2023-02-15T04:35:52;101973.19;;;8.63;85.66
43420;BME280;29017;51.514;-0.178;2023-02-15T04:38:19;101970.44;;;8.65;85.61
43420;BME280;29017;51.514;-0.178;2023-02-15T04:40:49;101963.50;;;8.64;85.41
43420;BME280;29017;51.514;-0.178;2023-02-15T04:43:16;101969.72;;;8.63;85.59
43420;BME280;29017;51.514;-0.178;2023-02-15T04:45:47;101966.13;;;8.64;86.31
43420;BME280;29017;51.514;-0.178;2023-02-15T04:48:14;101962.69;;;8.63;86.19
43420;BME280;29017;51.514;-0.178;2023-02-15T04:50:41;101965.31;;;8.63;86.42
43420;BME280;29017;51.514;-0.178;2023-02-15T04:53:08;101960.19;;;8.62;86.11
43420;BME280;29017;51.514;-0.178;2023-02-15T04:55:35;101967.31;;;8.59;86.23
43420;BME280;29017;51.514;-0.178;2023-02-15T04:58:02;101968.38;;;8.57;85.65
43420;BME280;29017;51.514;-0.178;2023-02-15T05:00:29;101948.44;;;8.54;85.35
43420;BME280;29017;51.514;-0.178;2023-02-15T05:02:55;101950.03;;;8.57;85.97
43420;BME280;29017;51.514;-0.178;2023-02-15T05:05:22;101950.72;;;8.59;86.54
43420;BME280;29017;51.514;-0.178;2023-02-15T05:07:49;101950.88;;;8.57;86.91
43420;BME280;29017;51.514;-0.178;2023-02-15T05:10:16;101946.47;;;8.58;87.16
43420;BME280;29017;51.514;-0.178;2023-02-15T05:12:43;101946.47;;;8.58;86.86
43420;BME280;29017;51.514;-0.178;2023-02-15T05:15:10;101940.25;;;8.59;87.11
43420;BME280;29017;51.514;-0.178;2023-02-15T05:17:37;101938.34;;;8.61;87.27
43420;BME280;29017;51.514;-0.178;2023-02-15T05:20:04;101939.41;;;8.58;87.44
43420;BME280;29017;51.514;-0.178;2023-02-15T05:22:33;101937.97;;;8.54;86.48
43420;BME280;29017;51.514;-0.178;2023-02-15T05:25:00;101930.22;;;8.53;85.98
43420;BME280;29017;51.514;-0.178;2023-02-15T05:27:30;101931.88;;;8.54;85.95
43420;BME280;29017;51.514;-0.178;2023-02-15T05:30:00;101929.16;;;8.55;85.68
43420;BME280;29017;51.514;-0.178;2023-02-15T05:32:28;101929.16;;;8.55;85.55
43420;BME280;29017;51.514;-0.178;2023-02-15T05:34:55;101929.03;;;8.57;85.88
43420;BME280;29017;51.514;-0.178;2023-02-15T05:37:22;101924.50;;;8.59;86.99
43420;BME280;29017;51.514;-0.178;2023-02-15T05:39:49;101920.94;;;8.60;86.68
43420;BME280;29017;51.514;-0.178;2023-02-15T05:42:16;101924.63;;;8.57;86.02
43420;BME280;29017;51.514;-0.178;2023-02-15T05:44:43;101922.72;;;8.59;86.34
43420;BME280;29017;51.514;-0.178;2023-02-15T05:47:10;101917.25;;;8.63;87.66
43420;BME280;29017;51.514;-0.178;2023-02-15T05:49:37;101917.47;;;8.59;88.03
43420;BME280;29017;51.514;-0.178;2023-02-15T05:52:04;101921.28;;;8.55;87.15
43420;BME280;29017;51.514;-0.178;2023-02-15T05:54:31;101930.44;;;8.50;86.61
43420;BME280;29017;51.514;-0.178;2023-02-15T05:56:58;101919.22;;;8.48;86.22
43420;BME280;29017;51.514;-0.178;2023-02-15T05:59:25;101916.59;;;8.48;86.63
43420;BME280;29017;51.514;-0.178;2023-02-15T06:01:52;101923.63;;;8.47;86.62
43420;BME280;29017;51.514;-0.178;2023-02-15T06:04:20;101913.25;;;8.46;86.66
43420;BME280;29017;51.514;-0.178;2023-02-15T06:06:47;101915.53;;;8.50;87.83
43420;BME280;29017;51.514;-0.178;2023-02-15T06:09:14;101913.50;;;8.54;88.51
43420;BME280;29017;51.514;-0.178;2023-02-15T06:11:41;101916.88;;;8.56;88.54
43420;BME280;29017;51.514;-0.178;2023-02-15T06:14:08;101917.72;;;8.56;88.83
43420;BME280;29017;51.514;-0.178;2023-02-15T06:16:34;101921.16;;;8.57;88.39
43420;BME280;29017;51.514;-0.178;2023-02-15T06:19:02;101921.16;;;8.57;88.98
43420;BME280;29017;51.514;-0.178;2023-02-15T06:21:29;101921.28;;;8.55;88.85
43420;BME280;29017;51.514;-0.178;2023-02-15T06:23:56;101908.91;;;8.57;89.35
43420;BME280;29017;51.514;-0.178;2023-02-15T06:26:24;101912.22;;;8.59;90.05
43420;BME280;29017;51.514;-0.178;2023-02-15T06:28:51;101915.78;;;8.58;89.72
43420;BME280;29017;51.514;-0.178;2023-02-15T06:31:17;101912.66;;;8.53;89.62
43420;BME280;29017;51.514;-0.178;2023-02-15T06:33:45;101912.16;;;8.48;88.67
43420;BME280;29017;51.514;-0.178;2023-02-15T06:36:12;101910.53;;;8.47;88.48
43420;BME280;29017;51.514;-0.178;2023-02-15T06:38:39;101911.13;;;8.51;89.19
43420;BME280;29017;51.514;-0.178;2023-02-15T06:41:06;101909.25;;;8.53;89.89
43420;BME280;29017;51.514;-0.178;2023-02-15T06:43:33;101909.09;;;8.54;89.94
43420;BME280;29017;51.514;-0.178;2023-02-15T06:46:00;101904.69;;;8.55;90.03
43420;BME280;29017;51.514;-0.178;2023-02-15T06:48:28;101909.00;;;8.56;89.89
43420;BME280;29017;51.514;-0.178;2023-02-15T06:50:55;101908.06;;;8.57;89.91
43420;BME280;29017;51.514;-0.178;2023-02-15T06:53:22;101904.50;;;8.58;90.23
43420;BME280;29017;51.514;-0.178;2023-02-15T06:55:49;101911.53;;;8.57;89.77
43420;BME280;29017;51.514;-0.178;2023-02-15T06:58:16;101916.97;;;8.54;89.19
43420;BME280;29017;51.514;-0.178;2023-02-15T07:00:43;101907.44;;;8.53;88.77
43420;BME280;29017;51.514;-0.178;2023-02-15T07:03:09;101914.25;;;8.56;89.53
43420;BME280;29017;51.514;-0.178;2023-02-15T07:05:39;101927.38;;;8.56;89.12
43420;BME280;29017;51.514;-0.178;2023-02-15T07:08:06;101923.06;;;8.55;88.62
43420;BME280;29017;51.514;-0.178;2023-02-15T07:10:33;101932.59;;;8.56;88.60
43420;BME280;29017;51.514;-0.178;2023-02-15T07:13:00;101922.84;;;8.58;89.04
43420;BME280;29017;51.514;-0.178;2023-02-15T07:15:28;101928.81;;;8.60;89.19
43420;BME280;29017;51.514;-0.178;2023-02-15T07:17:56;101923.66;;;8.58;88.85
43420;BME280;29017;51.514;-0.178;2023-02-15T07:20:23;101927.13;;;8.59;88.69
43420;BME280;29017;51.514;-0.178;2023-02-15T07:22:50;101929.75;;;8.59;88.31
43420;BME280;29017;51.514;-0.178;2023-02-15T07:25:17;101935.00;;;8.59;88.24
43420;BME280;29017;51.514;-0.178;2023-02-15T07:27:45;101935.97;;;8.58;87.95
43420;BME280;29017;51.514;-0.178;2023-02-15T07:30:14;101931.53;;;8.58;87.79
43420;BME280;29017;51.514;-0.178;2023-02-15T07:32:42;101935.97;;;8.58;87.57
43420;BME280;29017;51.514;-0.178;2023-02-15T07:35:12;101936.78;;;8.58;87.56
43420;BME280;29017;51.514;-0.178;2023-02-15T07:37:39;101939.41;;;8.58;87.40
43420;BME280;29017;51.514;-0.178;2023-02-15T07:40:06;101939.28;;;8.60;87.52
43420;BME280;29017;51.514;-0.178;2023-02-15T07:42:37;101937.28;;;8.64;87.39
43420;BME280;29017;51.514;-0.178;2023-02-15T07:45:04;101932.66;;;8.67;87.41
43420;BME280;29017;51.514;-0.178;2023-02-15T07:47:31;101934.94;;;8.72;88.03
43420;BME280;29017;51.514;-0.178;2023-02-15T07:49:58;101939.00;;;8.76;88.29
43420;BME280;29017;51.514;-0.178;2023-02-15T07:52:25;101946.97;;;8.74;87.85
43420;BME280;29017;51.514;-0.178;2023-02-15T07:54:52;101948.66;;;8.75;87.59
43420;BME280;29017;51.514;-0.178;2023-02-15T07:57:19;101949.16;;;8.80;88.06
43420;BME280;29017;51.514;-0.178;2023-02-15T07:59:46;101940.25;;;8.83;89.08
43420;BME280;29017;51.514;-0.178;2023-02-15T08:02:13;101939.75;;;8.89;88.87
43420;BME280;29017;51.514;-0.178;2023-02-15T08:04:43;101949.94;;;8.93;88.71
43420;BME280;29017;51.514;-0.178;2023-02-15T08:07:10;101946.34;;;8.94;88.33
43420;BME280;29017;51.514;-0.178;2023-02-15T08:09:37;101956.63;;;8.97;87.72
43420;BME280;29017;51.514;-0.178;2023-02-15T08:12:04;101955.69;;;8.98;87.07
43420;BME280;29017;51.514;-0.178;2023-02-15T08:14:33;101959.75;;;9.02;86.75
43420;BME280;29017;51.514;-0.178;2023-02-15T08:17:00;101957.63;;;9.08;86.81
43420;BME280;29017;51.514;-0.178;2023-02-15T08:19:31;101954.75;;;9.11;86.68
43420;BME280;29017;51.514;-0.178;2023-02-15T08:22:00;101952.41;;;9.19;86.95
43420;BME280;29017;51.514;-0.178;2023-02-15T08:24:28;101951.31;;;9.21;86.48
43420;BME280;29017;51.514;-0.178;2023-02-15T08:26:56;101950.38;;;9.22;85.92
43420;BME280;29017;51.514;-0.178;2023-02-15T08:29:26;101943.09;;;9.26;85.72
43420;BME280;29017;51.514;-0.178;2023-02-15T08:31:55;101947.03;;;9.31;85.72
43420;BME280;29017;51.514;-0.178;2023-02-15T08:34:25;101942.28;;;9.36;85.73
43420;BME280;29017;51.514;-0.178;2023-02-15T08:36:52;101940.22;;;9.40;85.76
43420;BME280;29017;51.514;-0.178;2023-02-15T08:39:20;101941.56;;;9.45;85.46
43420;BME280;29017;51.514;-0.178;2023-02-15T08:41:48;101936.78;;;9.51;85.18
43420;BME280;29017;51.514;-0.178;2023-02-15T08:44:16;101932.75;;;9.58;84.67
43420;BME280;29017;51.514;-0.178;2023-02-15T08:46:44;101929.19;;;9.70;84.47
43420;BME280;29017;51.514;-0.178;2023-02-15T08:49:12;101928.78;;;9.85;84.28
43420;BME280;29017;51.514;-0.178;2023-02-15T08:51:39;101922.81;;;9.95;83.33
43420;BME280;29017;51.514;-0.178;2023-02-15T08:54:08;101930.44;;;9.98;82.69
43420;BME280;29017;51.514;-0.178;2023-02-15T08:56:36;101924.94;;;10.01;82.66
43420;BME280;29017;51.514;-0.178;2023-02-15T08:59:04;101928.19;;;10.04;82.47
43420;BME280;29017;51.514;-0.178;2023-02-15T09:01:32;101925.28;;;10.07;82.40
43420;BME280;29017;51.514;-0.178;2023-02-15T09:04:01;101926.72;;;10.11;82.42
43420;BME280;29017;51.514;-0.178;2023-02-15T09:06:28;101926.16;;;10.19;82.75
43420;BME280;29017;51.514;-0.178;2023-02-15T09:08:56;101933.66;;;10.23;81.82
43420;BME280;29017;51.514;-0.178;2023-02-15T09:11:24;101930.56;;;10.29;81.52
43420;BME280;29017;51.514;-0.178;2023-02-15T09:13:53;101937.34;;;10.32;81.56
43420;BME280;29017;51.514;-0.178;2023-02-15T09:16:20;101943.91;;;10.38;81.18
43420;BME280;29017;51.514;-0.178;2023-02-15T09:18:48;101937.56;;;10.40;80.81
43420;BME280;29017;51.514;-0.178;2023-02-15T09:21:17;101939.00;;;10.44;80.87
43420;BME280;29017;51.514;-0.178;2023-02-15T09:23:46;101946.63;;;10.47;81.02
43420;BME280;29017;51.514;-0.178;2023-02-15T09:26:15;101936.09;;;10.47;80.15
43420;BME280;29017;51.514;-0.178;2023-02-15T09:28:43;101942.09;;;10.49;80.47
43420;BME280;29017;51.514;-0.178;2023-02-15T09:33:39;101937.16;;;10.56;81.02
43420;BME280;29017;51.514;-0.178;2023-02-15T09:38:37;101931.72;;;10.68;80.13
43420;BME280;29017;51.514;-0.178;2023-02-15T09:43:38;101934.03;;;10.83;79.91
43420;BME280;29017;51.514;-0.178;2023-02-15T09:46:12;101928.03;;;10.92;79.72
43420;BME280;29017;51.514;-0.178;2023-02-15T09:48:43;101932.25;;;11.04;79.92
43420;BME280;29017;51.514;-0.178;2023-02-15T09:56:14;101930.19;;;11.28;78.30
43420;BME280;29017;51.514;-0.178;2023-02-15T10:16:19;101901.19;;;11.49;76.92
43420;BME280;29017;51.514;-0.178;2023-02-15T10:21:23;101896.94;;;11.57;77.46
43420;BME280;29017;51.514;-0.178;2023-02-15T10:34:07;101903.38;;;11.74;76.30
43420;BME280;29017;51.514;-0.178;2023-02-15T10:51:40;101921.97;;;12.03;75.37
43420;BME280;29017;51.514;-0.178;2023-02-15T10:54:15;101911.13;;;12.06;75.33
43420;BME280;29017;51.514;-0.178;2023-02-15T11:06:44;101896.97;;;12.17;75.54
43420;BME280;29017;51.514;-0.178;2023-02-15T11:09:15;101895.06;;;12.19;75.09
43420;BME280;29017;51.514;-0.178;2023-02-15T11:11:45;101893.94;;;12.21;75.83
43420;BME280;29017;51.514;-0.178;2023-02-15T11:16:48;101888.41;;;12.34;75.68
43420;BME280;29017;51.514;-0.178;2023-02-15T11:21:49;101877.00;;;12.53;75.07
43420;BME280;29017;51.514;-0.178;2023-02-15T11:24:18;101883.53;;;12.58;73.92
43420;BME280;29017;51.514;-0.178;2023-02-15T11:29:19;101866.72;;;12.69;73.14
43420;BME280;29017;51.514;-0.178;2023-02-15T11:31:53;101867.25;;;12.72;72.86
43420;BME280;29017;51.514;-0.178;2023-02-15T11:36:50;101854.16;;;12.80;72.00
43420;BME280;29017;51.514;-0.178;2023-02-15T11:39:19;101850.28;;;12.84;71.73
43420;BME280;29017;51.514;-0.178;2023-02-15T11:41:49;101851.81;;;12.87;71.59
43420;BME280;29017;51.514;-0.178;2023-02-15T11:46:49;101841.50;;;12.94;71.88
43420;BME280;29017;51.514;-0.178;2023-02-15T11:51:47;101843.16;;;13.04;70.92
43420;BME280;29017;51.514;-0.178;2023-02-15T11:54:19;101848.97;;;13.08;71.03
43420;BME280;29017;51.514;-0.178;2023-02-15T11:56:48;101859.97;;;13.13;70.81
43420;BME280;29017;51.514;-0.178;2023-02-15T11:59:18;101854.13;;;13.19;70.77
43420;BME280;29017;51.514;-0.178;2023-02-15T12:01:49;101864.13;;;13.25;70.94
43420;BME280;29017;51.514;-0.178;2023-02-15T12:06:49;101849.06;;;13.35;70.05
43420;BME280;29017;51.514;-0.178;2023-02-15T12:09:22;101845.81;;;13.41;69.15
43420;BME280;29017;51.514;-0.178;2023-02-15T12:11:51;101848.72;;;13.48;69.58
43420;BME280;29017;51.514;-0.178;2023-02-15T12:14:19;101838.53;;;13.53;69.44
43420;BME280;29017;51.514;-0.178;2023-02-15T12:21:44;101817.19;;;13.64;69.77
43420;BME280;29017;51.514;-0.178;2023-02-15T12:24:19;101825.50;;;13.69;70.09
43420;BME280;29017;51.514;-0.178;2023-02-15T12:29:25;101819.84;;;13.82;70.05
43420;BME280;29017;51.514;-0.178;2023-02-15T12:31:54;101815.63;;;13.89;69.33
43420;BME280;29017;51.514;-0.178;2023-02-15T12:34:23;101815.16;;;13.93;68.67
43420;BME280;29017;51.514;-0.178;2023-02-15T12:36:53;101810.25;;;13.98;68.56
43420;BME280;29017;51.514;-0.178;2023-02-15T12:39:25;101815.78;;;14.05;68.45
43420;BME280;29017;51.514;-0.178;2023-02-15T12:44:26;101819.84;;;14.17;67.49
43420;BME280;29017;51.514;-0.178;2023-02-15T12:46:56;101815.63;;;14.24;67.77
43420;BME280;29017;51.514;-0.178;2023-02-15T12:49:25;101808.19;;;14.28;67.15
43420;BME280;29017;51.514;-0.178;2023-02-15T12:51:54;101804.94;;;14.34;66.63
43420;BME280;29017;51.514;-0.178;2023-02-15T12:56:53;101798.75;;;14.43;66.36
43420;BME280;29017;51.514;-0.178;2023-02-15T12:59:21;101799.13;;;14.48;66.15
43420;BME280;29017;51.514;-0.178;2023-02-15T13:01:49;101797.03;;;14.51;65.65
43420;BME280;29017;51.514;-0.178;2023-02-15T13:06:49;101793.44;;;14.61;64.58
43420;BME280;29017;51.514;-0.178;2023-02-15T13:09:20;101783.53;;;14.63;63.71
43420;BME280;29017;51.514;-0.178;2023-02-15T13:11:49;101783.72;;;14.69;63.49
43420;BME280;29017;51.514;-0.178;2023-02-15T13:16:50;101778.31;;;14.79;63.46
43420;BME280;29017;51.514;-0.178;2023-02-15T13:21:47;101767.09;;;14.85;61.99
43420;BME280;29017;51.514;-0.178;2023-02-15T13:26:46;101765.31;;;14.93;62.00
43420;BME280;29017;51.514;-0.178;2023-02-15T13:31:45;101752.78;;;15.04;61.57
43420;BME280;29017;51.514;-0.178;2023-02-15T13:34:15;101752.47;;;15.07;61.15
43420;BME280;29017;51.514;-0.178;2023-02-15T13:39:20;101748.34;;;15.12;60.97
43420;BME280;29017;51.514;-0.178;2023-02-15T14:06:52;101742.38;;;15.52;59.24
43420;BME280;29017;51.514;-0.178;2023-02-15T14:24:38;101728.81;;;15.63;59.72
43420;BME280;29017;51.514;-0.178;2023-02-15T14:32:10;101716.72;;;15.69;59.41
43420;BME280;29017;51.514;-0.178;2023-02-15T14:37:10;101722.66;;;15.71;58.69
43420;BME280;29017;51.514;-0.178;2023-02-15T14:47:12;101720.88;;;15.79;59.66
43420;BME280;29017;51.514;-0.178;2023-02-15T14:49:45;101711.06;;;15.80;58.81
43420;BME280;29017;51.514;-0.178;2023-02-15T14:52:12;101723.19;;;15.82;58.86
43420;BME280;29017;51.514;-0.178;2023-02-15T14:59:36;101722.53;;;15.89;58.55
43420;BME280;29017;51.514;-0.178;2023-02-15T15:07:03;101722.03;;;15.93;58.17
43420;BME280;29017;51.514;-0.178;2023-02-15T15:09:37;101721.03;;;15.94;58.50
43420;BME280;29017;51.514;-0.178;2023-02-15T15:14:36;101726.66;;;15.91;58.47
43420;BME280;29017;51.514;-0.178;2023-02-15T15:17:04;101714.56;;;15.89;58.55
43420;BME280;29017;51.514;-0.178;2023-02-15T15:22:19;101715.41;;;15.89;59.04
43420;BME280;29017;51.514;-0.178;2023-02-15T15:29:45;101720.19;;;15.86;57.70
43420;BME280;29017;51.514;-0.178;2023-02-15T15:32:12;101730.66;;;15.87;58.08
43420;BME280;29017;51.514;-0.178;2023-02-15T15:47:19;101730.47;;;15.80;59.00
43420;BME280;29017;51.514;-0.178;2023-02-15T15:49:54;101729.00;;;15.78;59.02
43420;BME280;29017;51.514;-0.178;2023-02-15T15:52:22;101727.00;;;15.72;58.33
43420;BME280;29017;51.514;-0.178;2023-02-15T15:54:52;101727.47;;;15.67;58.92
43420;BME280;29017;51.514;-0.178;2023-02-15T15:57:26;101733.94;;;15.65;58.85
43420;BME280;29017;51.514;-0.178;2023-02-15T15:59:54;101737.91;;;15.61;59.24
43420;BME280;29017;51.514;-0.178;2023-02-15T16:02:25;101744.53;;;15.57;58.98
43420;BME280;29017;51.514;-0.178;2023-02-15T16:04:53;101734.28;;;15.54;58.87
43420;BME280;29017;51.514;-0.178;2023-02-15T16:12:21;101745.50;;;15.48;59.47
43420;BME280;29017;51.514;-0.178;2023-02-15T16:14:50;101734.34;;;15.44;59.33
43420;BME280;29017;51.514;-0.178;2023-02-15T16:17:20;101734.69;;;15.41;59.23
43420;BME280;29017;51.514;-0.178;2023-02-15T16:19:49;101733.19;;;15.38;59.55
43420;BME280;29017;51.514;-0.178;2023-02-15T16:22:19;101732.69;;;15.35;59.20
43420;BME280;29017;51.514;-0.178;2023-02-15T16:29:44;101738.59;;;15.21;60.99
43420;BME280;29017;51.514;-0.178;2023-02-15T16:37:13;101744.03;;;15.11;60.59
43420;BME280;29017;51.514;-0.178;2023-02-15T16:39:41;101740.88;;;15.08;60.47
43420;BME280;29017;51.514;-0.178;2023-02-15T16:42:10;101737.69;;;15.04;60.76
43420;BME280;29017;51.514;-0.178;2023-02-15T16:44:38;101748.63;;;15.01;61.89
43420;BME280;29017;51.514;-0.178;2023-02-15T16:47:12;101748.44;;;14.94;61.23
43420;BME280;29017;51.514;-0.178;2023-02-15T16:49:43;101735.81;;;14.88;61.06
43420;BME280;29017;51.514;-0.178;2023-02-15T16:52:13;101733.63;;;14.84;60.61
43420;BME280;29017;51.514;-0.178;2023-02-15T16:54:42;101732.28;;;14.80;60.98
43420;BME280;29017;51.514;-0.178;2023-02-15T16:59:41;101733.94;;;14.73;61.78
43420;BME280;29017;51.514;-0.178;2023-02-15T17:02:13;101729.06;;;14.68;61.17